Terminal Aerodrome Forecast
Issued by NWS

Home | Current Version | Previous Version | Text Only | Print | Product List | Glossary On
Versions: 1 2 3 4 5 6 7 8 9 10 11 12 13 14
000
FTUS42 TJSJ 201700
TAFJMZ
TAF
TJMZ 201740Z 2018/2118 09009KT P6SM VCSH BKN030
      TEMPO 2018/2021 6SM -SHRA BR
     FM202100 05005KT P6SM FEW030
     FM211550 29010KT P6SM VCTS BKN030CB=

USA.gov is the U.S. government's official web portal to all federal, state and local government web resources and services.